Time,TemperatureF,DewpointF,PressureIn,WindDirection,WindDirectionDegrees,WindSpeedMPH,WindSpeedGustMPH,Humidity,HourlyPrecipIn,Conditions,Clouds,dailyrainin,SoftwareType,DateUTC
2013-07-06 00:00:00,81.3,50.3,29.60,SW,217,7.0,13.0,34,0.00,,---,0.00,VWS V14.01,2013-07-06 07:00:00,
2013-07-06 00:05:00,81.4,50.4,29.60,SSW,203,9.0,18.0,34,0.00,,---,0.00,VWS V14.01,2013-07-06 07:05:00,
2013-07-06 00:10:00,81.4,50.4,29.60,SSE,160,10.0,18.0,34,0.00,,---,0.00,VWS V14.01,2013-07-06 07:10:00,
2013-07-06 00:15:00,81.4,50.4,29.59,SW,222,13.0,18.0,34,0.00,,---,0.00,VWS V14.01,2013-07-06 07:15:00,
2013-07-06 00:20:00,81.4,50.4,29.59,SSW,194,14.0,18.0,34,0.00,,---,0.00,VWS V14.01,2013-07-06 07:20:00,
2013-07-06 00:25:00,81.3,50.3,29.59,South,173,5.0,18.0,34,0.00,,---,0.00,VWS V14.01,2013-07-06 07:25:00,
2013-07-06 00:30:00,81.4,50.4,29.59,SW,224,21.0,21.0,34,0.00,,---,0.00,VWS V14.01,2013-07-06 07:30:00,
2013-07-06 00:35:00,81.3,50.3,29.59,SSW,212,17.0,22.0,34,0.00,,---,0.00,VWS V14.01,2013-07-06 07:35:00,
2013-07-06 00:40:00,81.2,50.2,29.59,SSW,204,16.0,22.0,34,0.00,,---,0.00,VWS V14.01,2013-07-06 07:40:00,
2013-07-06 00:45:00,81.0,50.0,29.59,South,169,5.0,22.0,34,0.00,,---,0.00,VWS V14.01,2013-07-06 07:45:00,
2013-07-06 00:50:00,80.8,50.6,29.59,WSW,239,12.0,22.0,35,0.00,,---,0.00,VWS V14.01,2013-07-06 07:50:00,
2013-07-06 00:55:00,80.7,50.5,29.59,SW,219,9.0,22.0,35,0.00,,---,0.00,VWS V14.01,2013-07-06 07:55:00,
2013-07-06 01:00:00,80.7,50.5,29.59,SW,231,11.0,16.0,35,0.00,,---,0.00,VWS V14.01,2013-07-06 08:00:00,
2013-07-06 01:05:00,80.6,50.5,29.59,SSW,203,8.0,19.0,35,0.00,,---,0.00,VWS V14.01,2013-07-06 08:05:00,
2013-07-06 01:10:00,80.4,50.3,29.59,SSW,207,10.0,19.0,35,0.00,,---,0.00,VWS V14.01,2013-07-06 08:10:00,
2013-07-06 01:15:00,80.3,50.2,29.59,SSE,165,5.0,19.0,35,0.00,,---,0.00,VWS V14.01,2013-07-06 08:15:00,
2013-07-06 01:20:00,80.5,49.6,29.59,SSW,207,4.0,20.0,34,0.00,,---,0.00,VWS V14.01,2013-07-06 08:20:00,
2013-07-06 01:25:00,80.5,49.6,29.59,SSW,208,15.0,20.0,34,0.00,,---,0.00,VWS V14.01,2013-07-06 08:25:00,
2013-07-06 01:30:00,80.4,49.5,29.59,SW,222,13.0,20.0,34,0.00,,---,0.00,VWS V14.01,2013-07-06 08:30:00,
2013-07-06 01:35:00,80.3,49.4,29.59,SSW,210,15.0,20.0,34,0.00,,---,0.00,VWS V14.01,2013-07-06 08:35:00,
2013-07-06 01:41:00,80.3,50.2,29.59,SSW,210,11.0,20.0,35,0.00,,---,0.00,VWS V14.01,2013-07-06 08:41:00,
2013-07-06 01:46:00,80.2,50.1,29.59,SW,218,12.0,20.0,35,0.00,,---,0.00,VWS V14.01,2013-07-06 08:46:00,
2013-07-06 01:51:00,80.1,50.0,29.58,SSW,207,11.0,20.0,35,0.00,,---,0.00,VWS V14.01,2013-07-06 08:51:00,
2013-07-06 01:56:00,80.3,49.4,29.58,SSW,197,14.0,20.0,34,0.00,,---,0.00,VWS V14.01,2013-07-06 08:56:00,
2013-07-06 02:01:00,80.2,49.3,29.58,SW,217,11.0,17.0,34,0.00,,---,0.00,VWS V14.01,2013-07-06 09:01:00,
2013-07-06 02:06:00,80.0,49.9,29.58,SSW,193,3.0,19.0,35,0.00,,---,0.00,VWS V14.01,2013-07-06 09:06:00,
2013-07-06 02:11:00,79.9,49.8,29.58,SW,222,13.0,19.0,35,0.00,,---,0.00,VWS V14.01,2013-07-06 09:11:00,
2013-07-06 02:16:00,80.0,49.9,29.58,SW,222,11.0,19.0,35,0.00,,---,0.00,VWS V14.01,2013-07-06 09:16:00,
2013-07-06 02:21:00,80.0,49.1,29.58,SW,226,6.0,19.0,34,0.00,,---,0.00,VWS V14.01,2013-07-06 09:21:00,
2013-07-06 02:26:00,80.3,48.6,29.58,WSW,256,15.0,19.0,33,0.00,,---,0.00,VWS V14.01,2013-07-06 09:26:00,
2013-07-06 02:31:00,80.5,48.8,29.58,SSW,211,10.0,19.0,33,0.00,,---,0.00,VWS V14.01,2013-07-06 09:31:00,
2013-07-06 02:36:00,80.7,48.1,29.58,SSW,203,19.0,20.0,32,0.00,,---,0.00,VWS V14.01,2013-07-06 09:36:00,
2013-07-06 02:41:00,80.7,48.1,29.58,SSW,211,15.0,20.0,32,0.00,,---,0.00,VWS V14.01,2013-07-06 09:41:00,
2013-07-06 02:46:00,80.7,48.1,29.57,SSW,198,9.0,20.0,32,0.00,,---,0.00,VWS V14.01,2013-07-06 09:46:00,
2013-07-06 02:51:00,80.8,48.2,29.57,SW,235,6.0,20.0,32,0.00,,---,0.00,VWS V14.01,2013-07-06 09:51:00,
2013-07-06 02:56:00,80.6,48.0,29.57,SW,218,4.0,20.0,32,0.00,,---,0.00,VWS V14.01,2013-07-06 09:56:00,
2013-07-06 03:01:00,80.7,48.1,29.57,SSW,210,13.0,16.0,32,0.00,,---,0.00,VWS V14.01,2013-07-06 10:01:00,
2013-07-06 03:06:00,80.7,48.1,29.57,SSW,197,15.0,20.0,32,0.00,,---,0.00,VWS V14.01,2013-07-06 10:06:00,
2013-07-06 03:11:00,80.7,48.1,29.57,SSW,198,8.0,20.0,32,0.00,,---,0.00,VWS V14.01,2013-07-06 10:11:00,
2013-07-06 03:16:00,80.6,48.0,29.57,SW,217,8.0,20.0,32,0.00,,---,0.00,VWS V14.01,2013-07-06 10:16:00,
2013-07-06 03:21:00,80.6,48.0,29.57,SSW,207,9.0,20.0,32,0.00,,---,0.00,VWS V14.01,2013-07-06 10:21:00,
2013-07-06 03:26:00,80.5,48.0,29.57,WSW,237,12.0,20.0,32,0.00,,---,0.00,VWS V14.01,2013-07-06 10:26:00,
2013-07-06 03:31:00,80.6,48.0,29.57,SSW,200,7.0,22.0,32,0.00,,---,0.00,VWS V14.01,2013-07-06 10:31:00,
2013-07-06 03:36:00,80.6,48.0,29.57,SW,224,10.0,22.0,32,0.00,,---,0.00,VWS V14.01,2013-07-06 10:36:00,
2013-07-06 03:41:00,80.5,48.0,29.57,SSW,201,11.0,22.0,32,0.00,,---,0.00,VWS V14.01,2013-07-06 10:41:00,
2013-07-06 03:46:00,80.6,48.0,29.57,SSW,198,13.0,22.0,32,0.00,,---,0.00,VWS V14.01,2013-07-06 10:46:00,
2013-07-06 03:51:00,80.7,48.1,29.57,SSW,204,13.0,22.0,32,0.00,,---,0.00,VWS V14.01,2013-07-06 10:51:00,
2013-07-06 03:56:00,80.8,48.2,29.57,SW,228,15.0,22.0,32,0.00,,---,0.00,VWS V14.01,2013-07-06 10:56:00,
2013-07-06 04:01:00,80.8,48.2,29.57,WSW,237,8.0,19.0,32,0.00,,---,0.00,VWS V14.01,2013-07-06 11:01:00,
2013-07-06 04:06:00,80.8,48.2,29.57,South,184,14.0,19.0,32,0.00,,---,0.00,VWS V14.01,2013-07-06 11:06:00,
2013-07-06 04:11:00,80.9,47.5,29.57,South,191,9.0,19.0,31,0.00,,---,0.00,VWS V14.01,2013-07-06 11:11:00,
2013-07-06 04:16:00,80.9,47.5,29.57,SW,214,10.0,19.0,31,0.00,,---,0.00,VWS V14.01,2013-07-06 11:16:00,
2013-07-06 04:21:00,81.0,47.5,29.57,SW,224,11.0,19.0,31,0.00,,---,0.00,VWS V14.01,2013-07-06 11:21:00,
2013-07-06 04:26:00,81.1,46.8,29.57,SW,224,5.0,19.0,30,0.00,,---,0.00,VWS V14.01,2013-07-06 11:26:00,
2013-07-06 04:31:00,81.2,46.0,29.56,SW,224,16.0,19.0,29,0.00,,---,0.00,VWS V14.01,2013-07-06 11:31:00,
2013-07-06 04:36:00,81.4,46.1,29.56,SSW,210,10.0,19.0,29,0.00,,---,0.00,VWS V14.01,2013-07-06 11:36:00,
2013-07-06 04:41:00,81.5,45.3,29.57,SW,224,13.0,19.0,28,0.00,,---,0.00,VWS V14.01,2013-07-06 11:41:00,
2013-07-06 04:46:00,81.6,44.4,29.57,SSW,200,0.0,19.0,27,0.00,,---,0.00,VWS V14.01,2013-07-06 11:46:00,
2013-07-06 04:51:00,81.7,44.5,29.57,WSW,246,10.0,19.0,27,0.00,,---,0.00,VWS V14.01,2013-07-06 11:51:00,
2013-07-06 04:56:00,81.8,43.6,29.57,WSW,243,2.0,19.0,26,0.00,,---,0.00,VWS V14.01,2013-07-06 11:56:00,
2013-07-06 05:01:00,81.8,44.6,29.57,SSW,192,6.0,12.0,27,0.00,,---,0.00,VWS V14.01,2013-07-06 12:01:00,
2013-07-06 05:06:00,81.8,44.6,29.57,SSW,198,11.0,14.0,27,0.00,,---,0.00,VWS V14.01,2013-07-06 12:06:00,
2013-07-06 05:11:00,81.9,44.7,29.57,SW,224,7.0,15.0,27,0.00,,---,0.00,VWS V14.01,2013-07-06 12:11:00,
2013-07-06 05:16:00,81.7,44.5,29.57,SSW,208,1.0,15.0,27,0.00,,---,0.00,VWS V14.01,2013-07-06 12:16:00,
2013-07-06 05:21:00,81.6,44.4,29.58,SW,225,3.0,15.0,27,0.00,,---,0.00,VWS V14.01,2013-07-06 12:21:00,
2013-07-06 05:26:00,81.5,44.3,29.58,NNE,27,0.0,15.0,27,0.00,,---,0.00,VWS V14.01,2013-07-06 12:26:00,
2013-07-06 05:31:00,80.4,45.3,29.58,NW,323,0.0,15.0,29,0.00,,---,0.00,VWS V14.01,2013-07-06 12:31:00,
2013-07-06 05:36:00,79.2,46.0,29.58,NNE,27,2.0,15.0,31,0.00,,---,0.00,VWS V14.01,2013-07-06 12:36:00,
2013-07-06 05:41:00,78.3,46.9,29.59,SW,230,0.0,15.0,33,0.00,,---,0.00,VWS V14.01,2013-07-06 12:41:00,
2013-07-06 05:46:00,77.4,46.9,29.59,WSW,255,0.0,15.0,34,0.00,,---,0.00,VWS V14.01,2013-07-06 12:46:00,
2013-07-06 05:51:00,78.9,45.7,29.59,NW,310,1.0,15.0,31,0.00,,---,0.00,VWS V14.01,2013-07-06 12:51:00,
2013-07-06 05:56:00,80.5,45.3,29.59,SW,230,8.0,15.0,29,0.00,,---,0.00,VWS V14.01,2013-07-06 12:56:00,
2013-07-06 06:01:00,80.9,45.7,29.59,West,270,0.0,9.0,29,0.00,,---,0.00,VWS V14.01,2013-07-06 13:01:00,
2013-07-06 06:06:00,80.8,46.5,29.59,NNE,20,4.0,9.0,30,0.00,,---,0.00,VWS V14.01,2013-07-06 13:06:00,
2013-07-06 06:11:00,78.3,48.4,29.59,North,11,2.0,9.0,35,0.00,,---,0.00,VWS V14.01,2013-07-06 13:11:00,
2013-07-06 06:16:00,77.1,48.8,29.59,North,5,0.0,9.0,37,0.00,,---,0.00,VWS V14.01,2013-07-06 13:16:00,
2013-07-06 06:21:00,77.4,49.1,29.59,NE,41,1.0,9.0,37,0.00,,---,0.00,VWS V14.01,2013-07-06 13:21:00,
2013-07-06 06:26:00,78.2,46.8,29.59,WSW,251,0.0,9.0,33,0.00,,---,0.00,VWS V14.01,2013-07-06 13:26:00,
2013-07-06 06:32:00,80.1,46.8,29.59,NE,45,0.0,9.0,31,0.00,,---,0.00,VWS V14.01,2013-07-06 13:32:00,
2013-07-06 06:37:00,80.9,46.6,29.60,WNW,298,0.0,9.0,30,0.00,,---,0.00,VWS V14.01,2013-07-06 13:37:00,
2013-07-06 06:42:00,81.2,46.8,29.60,SSW,197,0.0,9.0,30,0.00,,---,0.00,VWS V14.01,2013-07-06 13:42:00,
2013-07-06 06:47:00,81.4,47.0,29.60,SSW,211,7.0,9.0,30,0.00,,---,0.00,VWS V14.01,2013-07-06 13:47:00,
2013-07-06 06:52:00,81.5,48.0,29.60,SW,228,12.0,12.0,31,0.00,,---,0.00,VWS V14.01,2013-07-06 13:52:00,
2013-07-06 06:57:00,81.7,48.2,29.60,SSW,195,5.0,12.0,31,0.00,,---,0.00,VWS V14.01,2013-07-06 13:57:00,
2013-07-06 07:02:00,82.2,47.7,29.60,South,191,3.0,7.0,30,0.00,,---,0.00,VWS V14.01,2013-07-06 14:02:00,
2013-07-06 07:07:00,82.5,48.0,29.60,SSW,205,10.0,14.0,30,0.00,,---,0.00,VWS V14.01,2013-07-06 14:07:00,
2013-07-06 07:12:00,82.9,48.3,29.60,SSW,205,6.0,14.0,30,0.00,,---,0.00,VWS V14.01,2013-07-06 14:12:00,
2013-07-06 07:17:00,83.0,48.4,29.60,West,269,4.0,14.0,30,0.00,,---,0.00,VWS V14.01,2013-07-06 14:17:00,
2013-07-06 07:22:00,82.8,48.2,29.60,SSW,197,3.0,14.0,30,0.00,,---,0.00,VWS V14.01,2013-07-06 14:22:00,
2013-07-06 07:27:00,82.6,48.1,29.60,South,184,1.0,14.0,30,0.00,,---,0.00,VWS V14.01,2013-07-06 14:27:00,
2013-07-06 07:32:00,82.9,48.3,29.60,SW,217,4.0,14.0,30,0.00,,---,0.00,VWS V14.01,2013-07-06 14:32:00,
2013-07-06 07:37:00,83.5,49.7,29.60,SSE,163,2.0,14.0,31,0.00,,---,0.00,VWS V14.01,2013-07-06 14:37:00,
2013-07-06 07:42:00,84.0,49.3,29.60,SW,214,3.0,14.0,30,0.00,,---,0.00,VWS V14.01,2013-07-06 14:42:00,
2013-07-06 07:47:00,84.3,48.6,29.60,SSW,195,9.0,14.0,29,0.00,,---,0.00,VWS V14.01,2013-07-06 14:47:00,
2013-07-06 07:52:00,84.4,48.7,29.60,South,188,6.0,15.0,29,0.00,,---,0.00,VWS V14.01,2013-07-06 14:52:00,
2013-07-06 07:57:00,84.5,47.8,29.60,South,187,12.0,18.0,28,0.00,,---,0.00,VWS V14.01,2013-07-06 14:57:00,
2013-07-06 08:02:00,84.6,47.9,29.60,South,180,10.0,19.0,28,0.00,,---,0.00,VWS V14.01,2013-07-06 15:02:00,
2013-07-06 08:07:00,84.8,48.1,29.60,SW,226,10.0,20.0,28,0.00,,---,0.00,VWS V14.01,2013-07-06 15:07:00,
2013-07-06 08:12:00,85.0,48.3,29.60,SW,222,14.0,21.0,28,0.00,,---,0.00,VWS V14.01,2013-07-06 15:12:00,
2013-07-06 08:17:00,85.2,48.5,29.60,SSW,212,9.0,21.0,28,0.00,,---,0.00,VWS V14.01,2013-07-06 15:17:00,
2013-07-06 08:22:00,85.5,48.7,29.60,SSW,198,12.0,21.0,28,0.00,,---,0.00,VWS V14.01,2013-07-06 15:22:00,
2013-07-06 08:27:00,85.8,49.0,29.60,SE,124,7.0,21.0,28,0.00,,---,0.00,VWS V14.01,2013-07-06 15:27:00,
2013-07-06 08:32:00,86.1,49.2,29.60,South,176,7.0,21.0,28,0.00,,---,0.00,VWS V14.01,2013-07-06 15:32:00,
2013-07-06 08:37:00,86.5,50.5,29.60,SW,217,12.0,21.0,29,0.00,,---,0.00,VWS V14.01,2013-07-06 15:37:00,
2013-07-06 08:42:00,86.8,49.8,29.60,SSW,200,14.0,21.0,28,0.00,,---,0.00,VWS V14.01,2013-07-06 15:42:00,
2013-07-06 08:47:00,87.2,51.1,29.60,SSW,212,13.0,21.0,29,0.00,,---,0.00,VWS V14.01,2013-07-06 15:47:00,
2013-07-06 08:52:00,87.7,50.6,29.60,SSW,205,4.0,21.0,28,0.00,,---,0.00,VWS V14.01,2013-07-06 15:52:00,
2013-07-06 08:57:00,88.0,49.9,29.60,SW,214,11.0,21.0,27,0.00,,---,0.00,VWS V14.01,2013-07-06 15:57:00,
2013-07-06 09:03:00,88.2,51.0,29.60,SW,232,9.0,15.0,28,0.00,,---,0.00,VWS V14.01,2013-07-06 16:03:00,
2013-07-06 09:08:00,88.6,51.4,29.60,WNW,286,6.0,16.0,28,0.00,,---,0.00,VWS V14.01,2013-07-06 16:08:00,
2013-07-06 09:14:00,88.8,50.5,29.60,SW,224,14.0,18.0,27,0.00,,---,0.00,VWS V14.01,2013-07-06 16:14:00,
2013-07-06 09:20:00,88.7,51.4,29.60,South,187,10.0,20.0,28,0.00,,---,0.00,VWS V14.01,2013-07-06 16:20:00,
2013-07-06 09:26:00,88.9,50.6,29.60,SW,220,6.0,20.0,27,0.00,,---,0.00,VWS V14.01,2013-07-06 16:26:00,
2013-07-06 09:32:00,89.2,51.9,29.60,SSW,201,13.0,20.0,28,0.00,,---,0.00,VWS V14.01,2013-07-06 16:32:00,
2013-07-06 09:40:00,88.9,51.6,29.60,South,190,11.0,21.0,28,0.00,,---,0.00,VWS V14.01,2013-07-06 16:40:00,
2013-07-06 09:46:00,88.7,51.4,29.60,SW,214,15.0,23.0,28,0.00,,---,0.00,VWS V14.01,2013-07-06 16:46:00,
2013-07-06 09:51:00,88.6,51.4,29.60,South,188,10.0,23.0,28,0.00,,---,0.00,VWS V14.01,2013-07-06 16:51:00,
2013-07-06 09:56:00,88.2,51.0,29.60,SW,217,12.0,25.0,28,0.00,,---,0.00,VWS V14.01,2013-07-06 16:56:00,
2013-07-06 10:02:00,88.1,51.9,29.60,SW,231,11.0,23.0,29,0.00,,---,0.00,VWS V14.01,2013-07-06 17:02:00,
2013-07-06 10:07:00,88.3,51.1,29.60,SSW,200,13.0,24.0,28,0.00,,---,0.00,VWS V14.01,2013-07-06 17:07:00,
2013-07-06 10:15:00,88.7,51.4,29.60,SSW,194,18.0,24.0,28,0.00,,---,0.00,VWS V14.01,2013-07-06 17:15:00,
2013-07-06 10:21:00,88.4,51.2,29.60,WSW,245,17.0,25.0,28,0.00,,---,0.00,VWS V14.01,2013-07-06 17:21:00,
2013-07-06 10:30:00,89.2,50.9,29.61,SW,217,16.0,25.0,27,0.00,,---,0.00,VWS V14.01,2013-07-06 17:30:00,
2013-07-06 10:40:00,90.6,51.0,29.61,SW,225,11.0,25.0,26,0.00,,---,0.00,VWS V14.01,2013-07-06 17:40:00,
2013-07-06 10:45:00,90.9,51.3,29.61,West,280,7.0,25.0,26,0.00,,---,0.00,VWS V14.01,2013-07-06 17:45:00,
2013-07-06 10:50:00,91.1,51.5,29.61,South,183,3.0,25.0,26,0.00,,---,0.00,VWS V14.01,2013-07-06 17:50:00,
2013-07-06 10:56:00,91.5,49.7,29.61,SSW,204,12.0,25.0,24,0.00,,---,0.00,VWS V14.01,2013-07-06 17:56:00,
2013-07-06 11:02:00,91.8,49.9,29.61,SW,217,13.0,17.0,24,0.00,,---,0.00,VWS V14.01,2013-07-06 18:02:00,
2013-07-06 11:08:00,92.0,50.1,29.61,SW,224,13.0,17.0,24,0.00,,---,0.00,VWS V14.01,2013-07-06 18:08:00,
2013-07-06 11:15:00,91.8,51.0,29.61,West,267,8.0,17.0,25,0.00,,---,0.00,VWS V14.01,2013-07-06 18:15:00,
2013-07-06 11:20:00,91.5,48.5,29.60,SSW,200,13.0,18.0,23,0.00,,---,0.00,VWS V14.01,2013-07-06 18:20:00,
2013-07-06 11:27:00,91.5,49.7,29.60,WSW,249,14.0,22.0,24,0.00,,---,0.00,VWS V14.01,2013-07-06 18:27:00,
2013-07-06 11:32:00,91.1,50.4,29.60,WSW,239,22.0,22.0,25,0.00,,---,0.00,VWS V14.01,2013-07-06 18:32:00,
2013-07-06 11:40:00,91.7,49.8,29.60,SW,234,9.0,22.0,24,0.00,,---,0.00,VWS V14.01,2013-07-06 18:40:00,
2013-07-06 11:46:00,91.7,49.8,29.60,SW,231,2.0,22.0,24,0.00,,---,0.00,VWS V14.01,2013-07-06 18:46:00,
2013-07-06 11:51:00,91.6,48.6,29.60,West,265,11.0,22.0,23,0.00,,---,0.00,VWS V14.01,2013-07-06 18:51:00,
2013-07-06 11:57:00,91.9,48.8,29.61,SSW,200,12.0,22.0,23,0.00,,---,0.00,VWS V14.01,2013-07-06 18:57:00,
2013-07-06 12:02:00,91.9,47.7,29.60,SW,226,4.0,13.0,22,0.00,,---,0.00,VWS V14.01,2013-07-06 19:02:00,
2013-07-06 12:07:00,92.6,48.2,29.60,SW,221,7.0,16.0,22,0.00,,---,0.00,VWS V14.01,2013-07-06 19:07:00,
2013-07-06 12:13:00,92.5,48.2,29.60,SW,224,10.0,19.0,22,0.00,,---,0.00,VWS V14.01,2013-07-06 19:13:00,
2013-07-06 12:18:00,92.6,48.2,29.60,NW,325,17.0,21.0,22,0.00,,---,0.00,VWS V14.01,2013-07-06 19:18:00,
2013-07-06 12:24:00,92.3,48.0,29.60,SSW,205,3.0,21.0,22,0.00,,---,0.00,VWS V14.01,2013-07-06 19:24:00,
2013-07-06 12:30:00,92.0,46.5,29.60,WSW,241,15.0,23.0,21,0.00,,---,0.00,VWS V14.01,2013-07-06 19:30:00,
2013-07-06 12:39:00,92.5,45.6,29.60,SW,224,13.0,23.0,20,0.00,,---,0.00,VWS V14.01,2013-07-06 19:39:00,
2013-07-06 12:44:00,92.7,45.8,29.60,SW,236,9.0,23.0,20,0.00,,---,0.00,VWS V14.01,2013-07-06 19:44:00,
2013-07-06 12:49:00,92.8,45.9,29.60,SW,219,8.0,23.0,20,0.00,,---,0.00,VWS V14.01,2013-07-06 19:49:00,
2013-07-06 12:54:00,92.5,46.9,29.60,South,177,9.0,23.0,21,0.00,,---,0.00,VWS V14.01,2013-07-06 19:54:00,
2013-07-06 12:59:00,92.2,45.4,29.60,SW,224,17.0,17.0,20,0.00,,---,0.00,VWS V14.01,2013-07-06 19:59:00,
2013-07-06 13:06:00,92.6,48.2,29.60,WSW,255,9.0,17.0,22,0.00,,---,0.00,VWS V14.01,2013-07-06 20:06:00,
2013-07-06 13:13:00,93.1,48.7,29.59,SW,214,9.0,21.0,22,0.00,,---,0.00,VWS V14.01,2013-07-06 20:13:00,
2013-07-06 13:18:00,93.3,47.6,29.59,South,177,2.0,21.0,21,0.00,,---,0.00,VWS V14.01,2013-07-06 20:18:00,
2013-07-06 13:23:00,93.5,47.8,29.59,SW,215,5.0,21.0,21,0.00,,---,0.00,VWS V14.01,2013-07-06 20:23:00,
2013-07-06 13:29:00,93.4,48.9,29.59,SW,215,12.0,21.0,22,0.00,,---,0.00,VWS V14.01,2013-07-06 20:29:00,
2013-07-06 13:36:00,93.0,46.0,29.60,SW,226,4.0,26.0,20,0.00,,---,0.00,VWS V14.01,2013-07-06 20:36:00,
2013-07-06 13:43:00,92.3,46.8,29.60,ESE,108,8.0,26.0,21,0.00,,---,0.00,VWS V14.01,2013-07-06 20:43:00,
2013-07-06 13:49:00,91.8,45.1,29.59,WSW,242,13.0,26.0,20,0.00,,---,0.00,VWS V14.01,2013-07-06 20:49:00,
2013-07-06 13:54:00,91.7,46.3,29.59,SSW,210,19.0,26.0,21,0.00,,---,0.00,VWS V14.01,2013-07-06 20:54:00,
2013-07-06 14:00:00,91.9,46.4,29.59,WSW,243,7.0,13.0,21,0.00,,---,0.00,VWS V14.01,2013-07-06 21:00:00,
2013-07-06 14:05:00,91.6,44.9,29.60,SW,228,14.0,21.0,20,0.00,,---,0.00,VWS V14.01,2013-07-06 21:05:00,
2013-07-06 14:10:00,91.7,46.3,29.60,WSW,245,15.0,21.0,21,0.00,,---,0.00,VWS V14.01,2013-07-06 21:10:00,
2013-07-06 14:16:00,91.7,45.0,29.60,SSW,200,10.0,21.0,20,0.00,,---,0.00,VWS V14.01,2013-07-06 21:16:00,
2013-07-06 14:23:00,91.9,45.1,29.60,SW,217,17.0,21.0,20,0.00,,---,0.00,VWS V14.01,2013-07-06 21:23:00,
2013-07-06 14:29:00,91.5,46.1,29.60,South,180,11.0,25.0,21,0.00,,---,0.00,VWS V14.01,2013-07-06 21:29:00,
2013-07-06 14:35:00,91.4,46.0,29.59,South,187,11.0,25.0,21,0.00,,---,0.00,VWS V14.01,2013-07-06 21:35:00,
2013-07-06 14:41:00,91.5,46.1,29.59,South,183,10.0,25.0,21,0.00,,---,0.00,VWS V14.01,2013-07-06 21:41:00,
2013-07-06 14:47:00,91.4,46.0,29.59,SW,236,9.0,25.0,21,0.00,,---,0.00,VWS V14.01,2013-07-06 21:47:00,
2013-07-06 14:52:00,91.5,44.8,29.59,SW,236,8.0,25.0,20,0.00,,---,0.00,VWS V14.01,2013-07-06 21:52:00,
2013-07-06 14:57:00,91.8,46.3,29.59,South,186,4.0,25.0,21,0.00,,---,0.00,VWS V14.01,2013-07-06 21:57:00,
2013-07-06 15:06:00,91.9,46.4,29.59,SW,226,14.0,18.0,21,0.00,,---,0.00,VWS V14.01,2013-07-06 22:06:00,
2013-07-06 15:11:00,91.8,45.1,29.59,WSW,258,6.0,20.0,20,0.00,,---,0.00,VWS V14.01,2013-07-06 22:11:00,
2013-07-06 15:16:00,91.8,43.7,29.58,SSW,205,12.0,20.0,19,0.00,,---,0.00,VWS V14.01,2013-07-06 22:16:00,
2013-07-06 15:23:00,92.0,45.2,29.58,West,281,3.0,20.0,20,0.00,,---,0.00,VWS V14.01,2013-07-06 22:23:00,
2013-07-06 15:30:00,92.2,44.0,29.58,WSW,245,11.0,20.0,19,0.00,,---,0.00,VWS V14.01,2013-07-06 22:30:00,
2013-07-06 15:36:00,92.6,47.0,29.58,WSW,257,14.0,20.0,21,0.00,,---,0.00,VWS V14.01,2013-07-06 22:36:00,
2013-07-06 15:41:00,92.9,48.5,29.58,WNW,300,6.0,20.0,22,0.00,,---,0.00,VWS V14.01,2013-07-06 22:41:00,
2013-07-06 15:46:00,92.8,45.9,29.58,SW,220,3.0,20.0,20,0.00,,---,0.00,VWS V14.01,2013-07-06 22:46:00,
2013-07-06 15:54:00,94.3,47.1,29.58,WNW,294,2.0,20.0,20,0.00,,---,0.00,VWS V14.01,2013-07-06 22:54:00,
2013-07-06 15:59:00,94.3,45.8,29.58,SSE,168,6.0,11.0,19,0.00,,---,0.00,VWS V14.01,2013-07-06 22:59:00,
2013-07-06 16:08:00,94.3,47.1,29.58,SW,233,8.0,18.0,20,0.00,,---,0.00,VWS V14.01,2013-07-06 23:08:00,
2013-07-06 16:15:00,94.5,45.9,29.58,SW,218,9.0,18.0,19,0.00,,---,0.00,VWS V14.01,2013-07-06 23:15:00,
2013-07-06 16:20:00,93.6,45.2,29.57,SW,218,3.0,18.0,19,0.00,,---,0.00,VWS V14.01,2013-07-06 23:20:00,
2013-07-06 16:25:00,93.0,46.0,29.57,WSW,239,3.0,18.0,20,0.00,,---,0.00,VWS V14.01,2013-07-06 23:25:00,
2013-07-06 16:32:00,92.5,46.9,29.57,WSW,245,8.0,18.0,21,0.00,,---,0.00,VWS V14.01,2013-07-06 23:32:00,
2013-07-06 16:40:00,92.9,47.2,29.57,SSW,195,6.0,18.0,21,0.00,,---,0.00,VWS V14.01,2013-07-06 23:40:00,
2013-07-06 16:46:00,93.3,48.8,29.56,West,263,6.0,18.0,22,0.00,,---,0.00,VWS V14.01,2013-07-06 23:46:00,
2013-07-06 16:51:00,93.8,48.0,29.57,SW,217,15.0,18.0,21,0.00,,---,0.00,VWS V14.01,2013-07-06 23:51:00,
2013-07-06 16:56:00,93.2,47.5,29.56,West,276,0.0,18.0,21,0.00,,---,0.00,VWS V14.01,2013-07-06 23:56:00,
2013-07-06 17:01:00,93.5,49.0,29.56,SW,236,10.0,15.0,22,0.00,,---,0.00,VWS V14.01,2013-07-07 00:01:00,
2013-07-06 17:06:00,93.2,49.9,29.56,SW,224,8.0,15.0,23,0.00,,---,0.00,VWS V14.01,2013-07-07 00:06:00,
2013-07-06 17:13:00,93.0,49.8,29.56,South,187,6.0,20.0,23,0.00,,---,0.00,VWS V14.01,2013-07-07 00:13:00,
2013-07-06 17:18:00,93.3,50.0,29.56,SSW,198,4.0,20.0,23,0.00,,---,0.00,VWS V14.01,2013-07-07 00:18:00,
2013-07-06 17:23:00,93.7,50.3,29.55,SW,219,10.0,20.0,23,0.00,,---,0.00,VWS V14.01,2013-07-07 00:23:00,
2013-07-06 17:30:00,92.8,49.6,29.56,SW,231,14.0,22.0,23,0.00,,---,0.00,VWS V14.01,2013-07-07 00:30:00,
2013-07-06 17:35:00,92.9,51.9,29.55,SW,231,14.0,22.0,25,0.00,,---,0.00,VWS V14.01,2013-07-07 00:35:00,
2013-07-06 17:41:00,92.5,51.6,29.55,SSW,193,14.0,22.0,25,0.00,,---,0.00,VWS V14.01,2013-07-07 00:41:00,
2013-07-06 17:46:00,92.5,52.7,29.55,WSW,252,9.0,22.0,26,0.00,,---,0.00,VWS V14.01,2013-07-07 00:46:00,
2013-07-06 17:52:00,91.9,53.2,29.55,WSW,250,9.0,22.0,27,0.00,,---,0.00,VWS V14.01,2013-07-07 00:52:00,
2013-07-06 17:58:00,91.9,54.2,29.55,SSW,213,14.0,22.0,28,0.00,,---,0.00,VWS V14.01,2013-07-07 00:58:00,
2013-07-06 18:03:00,91.6,53.9,29.55,WSW,257,12.0,15.0,28,0.00,,---,0.00,VWS V14.01,2013-07-07 01:03:00,
2013-07-06 18:08:00,91.4,53.8,29.55,WNW,302,8.0,18.0,28,0.00,,---,0.00,VWS V14.01,2013-07-07 01:08:00,
2013-07-06 18:15:00,90.6,53.1,29.55,WSW,256,13.0,22.0,28,0.00,,---,0.00,VWS V14.01,2013-07-07 01:15:00,
2013-07-06 18:21:00,90.1,53.6,29.55,South,174,17.0,23.0,29,0.00,,---,0.00,VWS V14.01,2013-07-07 01:21:00,
2013-07-06 18:26:00,89.5,54.9,29.55,SW,233,15.0,26.0,31,0.00,,---,0.00,VWS V14.01,2013-07-07 01:26:00,
2013-07-06 18:32:00,89.3,55.6,29.55,SW,220,13.0,26.0,32,0.00,,---,0.00,VWS V14.01,2013-07-07 01:32:00,
2013-07-06 18:37:00,89.0,55.3,29.55,WSW,258,20.0,26.0,32,0.00,,---,0.00,VWS V14.01,2013-07-07 01:37:00,
2013-07-06 18:42:00,88.5,55.8,29.55,SW,226,13.0,26.0,33,0.00,,---,0.00,VWS V14.01,2013-07-07 01:42:00,
2013-07-06 18:47:00,88.3,55.6,29.54,WSW,239,13.0,26.0,33,0.00,,---,0.00,VWS V14.01,2013-07-07 01:47:00,
2013-07-06 18:56:00,88.0,55.3,29.54,SSW,197,5.0,27.0,33,0.00,,---,0.00,VWS V14.01,2013-07-07 01:56:00,
2013-07-06 19:04:00,87.7,55.9,29.55,SSW,213,19.0,27.0,34,0.00,,---,0.00,VWS V14.01,2013-07-07 02:04:00,
2013-07-06 19:09:00,87.4,56.4,29.55,SSW,194,14.0,27.0,35,0.00,,---,0.00,VWS V14.01,2013-07-07 02:09:00,
2013-07-06 19:14:00,87.3,55.5,29.55,SW,218,12.0,28.0,34,0.00,,---,0.00,VWS V14.01,2013-07-07 02:14:00,
2013-07-06 19:20:00,87.1,56.2,29.55,SSW,212,14.0,28.0,35,0.00,,---,0.00,VWS V14.01,2013-07-07 02:20:00,
2013-07-06 19:26:00,86.7,57.3,29.55,WSW,256,7.0,28.0,37,0.00,,---,0.00,VWS V14.01,2013-07-07 02:26:00,
2013-07-06 19:31:00,86.1,57.5,29.55,SSW,207,15.0,28.0,38,0.00,,---,0.00,VWS V14.01,2013-07-07 02:31:00,
2013-07-06 19:36:00,85.6,57.1,29.55,SW,222,17.0,28.0,38,0.00,,---,0.00,VWS V14.01,2013-07-07 02:36:00,
2013-07-06 19:42:00,85.2,57.5,29.56,SW,215,13.0,28.0,39,0.00,,---,0.00,VWS V14.01,2013-07-07 02:42:00,
2013-07-06 19:48:00,84.7,57.0,29.55,South,191,11.0,28.0,39,0.00,,---,0.00,VWS V14.01,2013-07-07 02:48:00,
2013-07-06 19:57:00,84.0,56.4,29.55,SW,229,19.0,28.0,39,0.00,,---,0.00,VWS V14.01,2013-07-07 02:57:00,
2013-07-06 20:02:00,83.6,56.0,29.55,SSW,212,14.0,23.0,39,0.00,,---,0.00,VWS V14.01,2013-07-07 03:02:00,
2013-07-06 20:08:00,83.4,55.2,29.56,SSW,211,10.0,23.0,38,0.00,,---,0.00,VWS V14.01,2013-07-07 03:08:00,
2013-07-06 20:15:00,83.0,55.5,29.56,SSW,207,16.0,23.0,39,0.00,,---,0.00,VWS V14.01,2013-07-07 03:15:00,
2013-07-06 20:22:00,82.5,55.8,29.56,SW,219,19.0,24.0,40,0.00,,---,0.00,VWS V14.01,2013-07-07 03:22:00,
2013-07-06 20:28:00,82.1,54.7,29.56,SW,226,15.0,24.0,39,0.00,,---,0.00,VWS V14.01,2013-07-07 03:28:00,
2013-07-06 20:33:00,82.0,53.9,29.57,SW,233,11.0,24.0,38,0.00,,---,0.00,VWS V14.01,2013-07-07 03:33:00,
2013-07-06 20:38:00,81.9,53.8,29.57,SSW,207,19.0,24.0,38,0.00,,---,0.00,VWS V14.01,2013-07-07 03:38:00,
2013-07-06 20:44:00,81.7,52.9,29.57,SW,226,15.0,24.0,37,0.00,,---,0.00,VWS V14.01,2013-07-07 03:44:00,
2013-07-06 20:50:00,81.8,51.5,29.57,South,178,6.0,24.0,35,0.00,,---,0.00,VWS V14.01,2013-07-07 03:50:00,
2013-07-06 20:56:00,81.7,51.4,29.57,SSW,201,4.0,24.0,35,0.00,,---,0.00,VWS V14.01,2013-07-07 03:56:00,
2013-07-06 21:01:00,81.8,49.9,29.58,SSE,167,0.0,12.0,33,0.00,,---,0.00,VWS V14.01,2013-07-07 04:01:00,
2013-07-06 21:03:00,81.9,50.0,29.58,SSW,197,17.0,17.0,33,0.00,,---,0.00,VWS V14.01,2013-07-07 04:03:00,
2013-07-06 21:04:00,81.9,50.8,29.58,SW,219,7.0,17.0,34,0.00,,---,0.00,VWS V14.01,2013-07-07 04:04:00,
2013-07-06 21:05:00,81.9,50.8,29.58,SW,226,14.0,17.0,34,0.00,,---,0.00,VWS V14.01,2013-07-07 04:05:00,
2013-07-06 21:10:00,82.0,49.3,29.58,WSW,240,7.0,20.0,32,0.00,,---,0.00,VWS V14.01,2013-07-07 04:10:00,
2013-07-06 21:15:00,82.0,49.3,29.58,WSW,240,9.0,20.0,32,0.00,,---,0.00,VWS V14.01,2013-07-07 04:15:00,
2013-07-06 21:20:00,82.0,48.4,29.58,WSW,250,13.0,20.0,31,0.00,,---,0.00,VWS V14.01,2013-07-07 04:20:00,
2013-07-06 21:25:00,82.2,46.8,29.59,SW,229,17.0,20.0,29,0.00,,---,0.00,VWS V14.01,2013-07-07 04:25:00,
2013-07-06 21:30:00,82.4,46.1,29.59,SSW,212,5.0,20.0,28,0.00,,---,0.00,VWS V14.01,2013-07-07 04:30:00,
2013-07-06 21:35:00,82.3,47.8,29.60,SW,231,9.0,20.0,30,0.00,,---,0.00,VWS V14.01,2013-07-07 04:35:00,
2013-07-06 21:40:00,82.0,47.5,29.60,NNW,337,1.0,20.0,30,0.00,,---,0.00,VWS V14.01,2013-07-07 04:40:00,
2013-07-06 21:45:00,81.8,47.4,29.61,WNW,288,1.0,20.0,30,0.00,,---,0.00,VWS V14.01,2013-07-07 04:45:00,
2013-07-06 21:50:00,81.4,47.0,29.61,West,280,0.0,20.0,30,0.00,,---,0.00,VWS V14.01,2013-07-07 04:50:00,
2013-07-06 21:55:00,81.2,46.8,29.61,NW,304,0.0,20.0,30,0.00,,---,0.00,VWS V14.01,2013-07-07 04:55:00,
2013-07-06 22:00:00,80.9,46.6,29.61,WNW,285,0.0,0.0,30,0.00,,---,0.00,VWS V14.01,2013-07-07 05:00:00,
2013-07-06 22:05:00,81.0,45.8,29.61,NNW,345,0.0,3.0,29,0.00,,---,0.00,VWS V14.01,2013-07-07 05:05:00,
2013-07-06 22:10:00,81.5,45.3,29.61,NNW,347,12.0,14.0,28,0.00,,---,0.00,VWS V14.01,2013-07-07 05:10:00,
2013-07-06 22:15:00,82.2,45.9,29.61,WSW,238,0.0,14.0,28,0.00,,---,0.00,VWS V14.01,2013-07-07 05:15:00,
2013-07-06 22:20:00,81.7,46.4,29.61,WSW,251,0.0,14.0,29,0.00,,---,0.00,VWS V14.01,2013-07-07 05:20:00,
2013-07-06 22:25:00,81.3,46.0,29.61,WNW,283,0.0,14.0,29,0.00,,---,0.00,VWS V14.01,2013-07-07 05:25:00,
2013-07-06 22:30:00,81.2,46.8,29.61,WNW,301,6.0,14.0,30,0.00,,---,0.00,VWS V14.01,2013-07-07 05:30:00,
2013-07-06 22:35:00,81.2,46.0,29.61,WNW,283,2.0,14.0,29,0.00,,---,0.00,VWS V14.01,2013-07-07 05:35:00,
2013-07-06 22:40:00,81.2,46.0,29.61,WNW,297,7.0,14.0,29,0.00,,---,0.00,VWS V14.01,2013-07-07 05:40:00,
2013-07-06 22:45:00,81.9,45.6,29.61,NW,316,0.0,14.0,28,0.00,,---,0.00,VWS V14.01,2013-07-07 05:45:00,
2013-07-06 22:50:00,82.0,44.8,29.61,West,271,3.0,14.0,27,0.00,,---,0.00,VWS V14.01,2013-07-07 05:50:00,
2013-07-06 22:55:00,81.7,44.5,29.61,WNW,290,2.0,14.0,27,0.00,,---,0.00,VWS V14.01,2013-07-07 05:55:00,
2013-07-06 23:00:00,81.6,44.4,29.61,North,357,0.0,2.0,27,0.00,,---,0.00,VWS V14.01,2013-07-07 06:00:00,
2013-07-06 23:05:00,81.7,44.5,29.61,WNW,301,6.0,7.0,27,0.00,,---,0.00,VWS V14.01,2013-07-07 06:05:00,
2013-07-06 23:10:00,81.9,45.6,29.61,WNW,301,3.0,7.0,28,0.00,,---,0.00,VWS V14.01,2013-07-07 06:10:00,
2013-07-06 23:15:00,81.8,45.5,29.61,West,276,0.0,7.0,28,0.00,,---,0.00,VWS V14.01,2013-07-07 06:15:00,
2013-07-06 23:20:00,81.7,46.4,29.61,WNW,303,4.0,7.0,29,0.00,,---,0.00,VWS V14.01,2013-07-07 06:20:00,
2013-07-06 23:25:00,81.9,46.6,29.60,West,281,0.0,7.0,29,0.00,,---,0.00,VWS V14.01,2013-07-07 06:25:00,
2013-07-06 23:30:00,81.3,47.8,29.61,SW,224,1.0,8.0,31,0.00,,---,0.00,VWS V14.01,2013-07-07 06:30:00,
2013-07-06 23:35:00,80.7,48.1,29.61,SSE,148,0.0,8.0,32,0.00,,---,0.00,VWS V14.01,2013-07-07 06:35:00,
2013-07-06 23:40:00,80.1,48.4,29.60,North,1,0.0,8.0,33,0.00,,---,0.00,VWS V14.01,2013-07-07 06:40:00,
2013-07-06 23:45:00,79.7,48.9,29.60,East,101,0.0,8.0,34,0.00,,---,0.00,VWS V14.01,2013-07-07 06:45:00,
2013-07-06 23:50:00,79.7,48.1,29.60,SE,130,0.0,8.0,33,0.00,,---,0.00,VWS V14.01,2013-07-07 06:50:00,
2013-07-06 23:55:00,79.3,48.5,29.60,SSE,167,0.0,8.0,34,0.00,,---,0.00,VWS V14.01,2013-07-07 06:55:00,